Adelphi, Maryland
Current Conditions -  °F | °C
As of 4:35 PM on Friday 31 Oct 2014 (Local Time) from KCGS Reporting Station
Broken Clouds Broken Clouds  
Wind Chill: 54°   Ceiling: 5000
Heat Index: 54°   Visibility: 10mi
Dew Point: 32°   Wind: 0mph
Humidity: 44%   Direction: NA
Pressure: 29.87"   Gusts: NA
Location:  39°N, 76.97°W
Report Text: KCGS 312035Z AUTO 00000KT 10SM BKN050 12/00 A2987 RMK AO1
Loading
Personal Weather Stations






























Interactive Weather Map
Tropical Storm Tracking
New forecast layout! Learn more

10-Day Weather Forecast

Advertisements
Track Severe Weather on mobile